Jicin, Czech Republic
Current Conditions -  °F | °C
As of 1:00 PM on Thursday 27 Nov 2014 (Local Time) from LKPD Reporting Station
Overcast Overcast  
Wind Chill: 29°   Ceiling: 2400
Heat Index: 36°   Visibility: 6mi
Dew Point: 32°   Wind: 9mph
Humidity: 87%   Direction: 110°ESE
Pressure: 30.03"   Gusts: NA
Location:  50.44°N, 15.35°E
Report Text: LKPD 271100Z 11008KT 9999 OVC024 02/M00 Q1017 NOSIG
Loading
Personal Weather Stations






























Interactive Weather Map New forecast layout! Learn more

10-Day Weather Forecast

Advertisements
Track Severe Weather on mobile